Impacts TAF Board
For situational awareness. Not to be used for flight planning purposes.
IDs:

KMSP - Minneapolis-St Paul, MN, US

Issued at 1138 UTC 13 Dec 2018
Updated at 1353 UTC 13 Dec 2018
Potential Impact None Slight Moderate High
Time1315Z 13/14Z 13/15Z 13/16Z 13/17Z 13/18Z 13/19Z 13/20Z 13/21Z 13/22Z 13/23Z 14/00Z 14/01Z 14/02Z>>
Type OBS PRVL
  [TEMP]  
PRVL
  [TEMP]  
PRVL PRVL PRVL PRVL PRVL PRVL PRVL PRVL PRVL PRVL PRVL
VIS 3 3
  [2]  
3
  [2]  
3 3 6 6 6 6 6 >6 >6 >6 >6
CIG 4 4
  [2]  
4
  [2]  
4 4 7 7 7 10 10 40 -- -- --
Cover OVC OVC
  [OVC]  
OVC
  [OVC]  
OVC OVC OVC OVC OVC OVC OVC BKN SCT SCT SCT
FltCat LIFR LIFR
  [LIFR]  
LIFR
  [LIFR]  
LIFR LIFR IFR IFR IFR MVFR MVFR VFR VFR VFR VFR
WX BR BR
  [BR]  
BR
  [BR]  
BR BR BR BR BR BR BR -- -- -- --
WDir 150 160
[160]
160
[160]
160 160 180 180 180 VRB VRB 280 240 240 240
WSpd 4 5
  [5]  
5
  [5]  
5 5 5 5 5 4 4 3 4 4 4
WGst -- --
  [--]  
--
  [--]  
-- -- -- -- -- -- -- -- -- -- --
Raw TAF
KMSP 131138Z 1312/1418 16005KT 3SM BR OVC004
  TEMPO 1312/1316 2SM BR OVC002
  FM131800 18005KT 6SM BR OVC007
  FM132100 VRB04KT 6SM BR OVC010
  FM132300 28003KT P6SM BKN040
  FM140000 24004KT P6SM SCT045
  FM140800 21003KT 5SM BR SCT050


Raw METAR
KMSP 131315Z 15004KT 3SM BR OVC004 M04/M05 A2997 RMK AO2 T10441050
KMSP 131253Z 17004KT 2 1/2SM BR OVC004 M04/M05 A2996 RMK AO2 SLP157 T10441050
KMSP 131222Z 15006KT 3SM BR OVC004 M04/M05 A2996 RMK AO2 T10441050
KMSP 131153Z 14007KT 2 1/2SM BR OVC004 M04/M05 A2994 RMK AO2 SLP152 4/004 I6000 T10441050 11039 21050 53009
KMSP 131136Z 14003KT 3SM BR OVC003 M04/M04 A2995 RMK AO2 T10441044
KMSP 131053Z 14006KT 2 1/2SM BR OVC003 M05/M05 A2993 RMK AO2 SLP147 T10501050
KMSP 131036Z 15005KT 2 1/2SM BR OVC004 M04/M05 A2992 RMK AO2 T10441050

METAR Board
Radar Display
Forecast Discussion
For situational awareness. Not to be used for flight planning purposes.